createdAt,value
2023-01-02T00:01:41.200Z,11.60
2023-01-02T00:04:09.146Z,11.50
2023-01-02T00:06:41.124Z,11.60
2023-01-02T00:09:09.978Z,11.50
2023-01-02T00:11:38.924Z,11.50
2023-01-02T00:14:07.317Z,11.40
2023-01-02T00:16:35.273Z,11.40
2023-01-02T00:19:03.424Z,11.50
2023-01-02T00:21:31.277Z,11.50
2023-01-02T00:24:00.489Z,11.40
2023-01-02T00:26:28.814Z,11.40
2023-01-02T00:28:56.669Z,11.30
2023-01-02T00:31:24.796Z,11.30
2023-01-02T00:33:52.714Z,11.20
2023-01-02T00:36:21.873Z,11.10
2023-01-02T00:38:49.735Z,11.20
2023-01-02T00:41:21.346Z,11.10
2023-01-02T00:43:49.244Z,11.10
2023-01-02T00:46:18.634Z,11.10
2023-01-02T00:48:46.563Z,11.10
2023-01-02T00:51:14.425Z,11.10
2023-01-02T00:53:42.324Z,11.10
2023-01-02T00:56:10.224Z,11.10
2023-01-02T00:58:39.455Z,11.10
2023-01-02T01:01:07.342Z,11.10
2023-01-02T01:03:35.449Z,11.10
2023-01-02T01:06:08.478Z,11.10
2023-01-02T01:08:36.943Z,11.20
2023-01-02T01:11:09.713Z,11.30
2023-01-02T01:13:40.376Z,11.30
2023-01-02T01:16:11.296Z,11.30
2023-01-02T01:18:39.707Z,11.30
2023-01-02T01:21:09.160Z,11.30
2023-01-02T01:23:37.447Z,11.30
2023-01-02T01:26:07.591Z,11.30
2023-01-02T01:28:35.953Z,11.30
2023-01-02T01:31:07.104Z,11.30
2023-01-02T01:33:37.210Z,11.40
2023-01-02T01:36:07.952Z,11.40
2023-01-02T01:38:36.220Z,11.30
2023-01-02T01:41:07.877Z,11.40
2023-01-02T01:43:43.197Z,11.40
2023-01-02T01:46:24.456Z,11.40
2023-01-02T01:49:01.014Z,11.30
2023-01-02T01:51:31.425Z,11.30
2023-01-02T01:54:08.388Z,11.30
2023-01-02T01:56:41.671Z,11.40
2023-01-02T01:59:13.087Z,11.50
2023-01-02T02:01:44.850Z,11.50
2023-01-02T02:04:15.080Z,11.60
2023-01-02T02:06:42.973Z,11.60
2023-01-02T02:09:17.459Z,11.60
2023-01-02T02:11:47.736Z,11.70
2023-01-02T02:14:15.792Z,11.70
2023-01-02T02:17:02.477Z,11.70
2023-01-02T02:20:08.806Z,11.80
2023-01-02T02:23:17.026Z,11.80
2023-01-02T02:26:08.916Z,11.90
2023-01-02T02:29:14.923Z,11.90
2023-01-02T02:31:58.366Z,11.90
2023-01-02T02:34:39.849Z,11.90
2023-01-02T02:37:20.085Z,12.00
2023-01-02T02:40:02.895Z,12.00
2023-01-02T02:42:44.911Z,12.00
2023-01-02T02:45:22.530Z,12.10
2023-01-02T02:48:01.206Z,12.10
2023-01-02T02:50:34.992Z,12.10
2023-01-02T02:53:10.023Z,12.10
2023-01-02T02:55:45.585Z,12.20
2023-01-02T02:58:16.677Z,12.20
2023-01-02T03:00:44.549Z,12.20
2023-01-02T03:03:20.752Z,12.10
2023-01-02T03:06:09.353Z,12.10
2023-01-02T03:08:48.619Z,12.20
2023-01-02T03:11:17.398Z,12.20
2023-01-02T03:14:00.425Z,12.20
2023-01-02T03:16:36.032Z,12.20
2023-01-02T03:19:11.205Z,12.10
2023-01-02T03:21:46.879Z,12.10
2023-01-02T03:24:20.892Z,12.00
2023-01-02T03:26:56.858Z,12.00
2023-01-02T03:29:35.569Z,11.90
2023-01-02T03:32:13.210Z,11.90
2023-01-02T03:34:46.591Z,11.90
2023-01-02T03:37:22.394Z,11.90
2023-01-02T03:39:55.435Z,11.90
2023-01-02T03:42:30.064Z,11.80
2023-01-02T03:45:05.811Z,11.70
2023-01-02T03:47:43.917Z,11.50
2023-01-02T03:50:20.658Z,11.40
2023-01-02T03:52:49.077Z,11.20
2023-01-02T03:55:18.482Z,11.10
2023-01-02T03:58:00.948Z,10.90
2023-01-02T04:00:36.998Z,10.90
2023-01-02T04:03:12.109Z,10.80
2023-01-02T04:05:49.018Z,10.80
2023-01-02T04:08:25.761Z,10.70
2023-01-02T04:10:58.788Z,10.60
2023-01-02T04:13:33.585Z,10.50
2023-01-02T04:16:05.065Z,10.50
2023-01-02T04:18:46.188Z,10.50
2023-01-02T04:21:25.087Z,10.50
2023-01-02T04:24:01.048Z,10.50
2023-01-02T04:26:36.597Z,10.50
2023-01-02T04:29:07.170Z,10.50
2023-01-02T04:31:44.719Z,10.50
2023-01-02T04:34:17.643Z,10.40
2023-01-02T04:36:47.347Z,10.40
2023-01-02T04:39:15.309Z,10.40
2023-01-02T04:41:43.911Z,10.40
2023-01-02T04:44:11.848Z,10.40
2023-01-02T04:46:39.713Z,10.40
2023-01-02T04:49:07.626Z,10.20
2023-01-02T04:51:35.477Z,9.70
2023-01-02T04:54:05.129Z,10.40
2023-01-02T04:56:32.992Z,10.40
2023-01-02T04:59:01.055Z,10.40
2023-01-02T05:01:29.027Z,10.30
2023-01-02T05:03:57.385Z,10.20
2023-01-02T05:06:25.280Z,10.20
2023-01-02T05:08:53.212Z,10.20
2023-01-02T05:11:22.694Z,10.30
2023-01-02T05:13:50.880Z,10.40
2023-01-02T05:16:19.120Z,10.40
2023-01-02T05:18:47.014Z,10.40
2023-01-02T05:21:29.690Z,10.40
2023-01-02T05:23:59.182Z,10.40
2023-01-02T05:26:30.639Z,10.40
2023-01-02T05:28:58.514Z,10.50
2023-01-02T05:31:27.055Z,10.50
2023-01-02T05:33:57.972Z,10.60
2023-01-02T05:36:27.396Z,10.60
2023-01-02T05:38:55.720Z,10.60
2023-01-02T05:41:24.140Z,10.60
2023-01-02T05:43:55.507Z,10.70
2023-01-02T05:46:23.788Z,10.70
2023-01-02T05:48:51.685Z,10.70
2023-01-02T05:51:20.597Z,10.70
2023-01-02T05:53:49.156Z,10.80
2023-01-02T05:56:19.001Z,10.80
2023-01-02T05:58:50.017Z,10.80
2023-01-02T06:01:21.876Z,10.80
2023-01-02T06:03:52.556Z,10.90
2023-01-02T06:06:23.982Z,10.90
2023-01-02T06:08:54.712Z,10.90
2023-01-02T06:11:22.975Z,10.80
2023-01-02T06:13:54.187Z,10.90
2023-01-02T06:16:25.080Z,10.90
2023-01-02T06:18:53.626Z,10.90
2023-01-02T06:21:23.339Z,10.90
2023-01-02T06:23:56.947Z,10.90
2023-01-02T06:26:32.743Z,10.90
2023-01-02T06:29:03.424Z,10.90
2023-01-02T06:31:33.630Z,10.90
2023-01-02T06:34:03.979Z,10.80
2023-01-02T06:36:35.030Z,10.70
2023-01-02T06:39:03.649Z,10.70
2023-01-02T06:41:32.228Z,10.60
2023-01-02T06:44:00.144Z,10.70
2023-01-02T06:46:28.150Z,10.60
2023-01-02T06:48:57.371Z,10.60
2023-01-02T06:51:25.664Z,10.60
2023-01-02T06:53:53.572Z,10.50
2023-01-02T06:56:24.700Z,10.50
2023-01-02T06:58:52.561Z,10.50
2023-01-02T07:01:24.265Z,10.40
2023-01-02T07:03:52.278Z,10.40
2023-01-02T07:06:23.738Z,10.40
2023-01-02T07:08:52.909Z,10.40
2023-01-02T07:11:24.424Z,10.30
2023-01-02T07:13:55.239Z,10.30
2023-01-02T07:16:25.320Z,10.30
2023-01-02T07:18:54.544Z,10.30
2023-01-02T07:21:24.202Z,10.40
2023-01-02T07:23:52.657Z,10.30
2023-01-02T07:26:21.946Z,10.40
2023-01-02T07:28:49.846Z,10.40
2023-01-02T07:31:20.226Z,10.40
2023-01-02T07:33:48.418Z,10.50
2023-01-02T07:36:19.553Z,10.50
2023-01-02T07:38:52.997Z,10.50
2023-01-02T07:41:24.005Z,10.50
2023-01-02T07:43:55.146Z,10.60
2023-01-02T07:46:24.026Z,10.60
2023-01-02T07:48:51.942Z,10.60
2023-01-02T07:51:26.730Z,10.50
2023-01-02T07:53:58.201Z,10.50
2023-01-02T07:56:26.477Z,10.50
2023-01-02T07:58:54.579Z,10.60
2023-01-02T08:01:22.774Z,10.70
2023-01-02T08:03:50.927Z,10.80
2023-01-02T08:06:20.801Z,10.80
2023-01-02T08:08:49.793Z,10.80
2023-01-02T08:11:21.574Z,10.90
2023-01-02T08:13:50.139Z,11.00
2023-01-02T08:16:20.933Z,11.10
2023-01-02T08:18:51.298Z,11.10
2023-01-02T08:21:19.653Z,11.10
2023-01-02T08:23:47.641Z,11.10
2023-01-02T08:26:15.617Z,11.10
2023-01-02T08:28:45.687Z,11.10
2023-01-02T08:31:17.672Z,11.30
2023-01-02T08:33:46.134Z,11.50
2023-01-02T08:36:15.424Z,11.70
2023-01-02T08:38:43.728Z,11.80
2023-01-02T08:41:11.865Z,12.00
2023-01-02T08:43:39.885Z,12.10
2023-01-02T08:46:10.982Z,12.30
2023-01-02T08:48:39.269Z,12.40
2023-01-02T08:51:07.551Z,12.50
2023-01-02T08:53:35.836Z,12.70
2023-01-02T08:56:24.954Z,12.80
2023-01-02T08:58:54.925Z,13.00
2023-01-02T09:01:26.452Z,13.20
2023-01-02T09:03:55.556Z,13.40
2023-01-02T09:06:25.669Z,13.60
2023-01-02T09:08:56.150Z,13.80
2023-01-02T09:11:27.221Z,13.90
2023-01-02T09:13:56.713Z,14.10
2023-01-02T09:16:26.934Z,14.10
2023-01-02T09:18:57.625Z,14.20
2023-01-02T09:21:40.982Z,14.30
2023-01-02T09:24:09.988Z,14.40
2023-01-02T09:26:41.573Z,14.50
2023-01-02T09:29:10.595Z,14.50
2023-01-02T09:31:40.868Z,14.50
2023-01-02T09:34:09.684Z,14.60
2023-01-02T09:36:37.902Z,14.70
2023-01-02T09:39:06.631Z,14.80
2023-01-02T09:41:39.229Z,14.90
2023-01-02T09:44:15.937Z,14.90
2023-01-02T09:46:54.251Z,14.90
2023-01-02T09:49:28.214Z,14.90
2023-01-02T09:51:56.361Z,15.00
2023-01-02T09:54:28.610Z,15.00
2023-01-02T09:57:15.721Z,15.00
2023-01-02T09:59:56.287Z,15.00
2023-01-02T10:02:48.758Z,15.00
2023-01-02T10:06:00.173Z,15.10
2023-01-02T10:08:40.344Z,15.10
2023-01-02T10:11:28.170Z,15.10
2023-01-02T10:14:18.500Z,15.10
2023-01-02T10:16:51.762Z,15.00
2023-01-02T10:19:29.096Z,15.20
2023-01-02T10:22:01.651Z,15.10
2023-01-02T10:24:44.148Z,15.10
2023-01-02T10:27:22.039Z,15.10
2023-01-02T10:30:02.155Z,15.10
2023-01-02T10:32:33.584Z,15.20
2023-01-02T10:35:22.098Z,15.20
2023-01-02T10:37:50.129Z,15.20
2023-01-02T10:40:18.215Z,15.30
2023-01-02T10:42:46.869Z,15.40
2023-01-02T10:45:17.292Z,15.60
2023-01-02T10:47:46.243Z,15.90
2023-01-02T10:50:22.934Z,16.10
2023-01-02T10:52:53.485Z,16.30
2023-01-02T10:55:33.357Z,16.50
2023-01-02T10:58:07.135Z,16.80
2023-01-02T11:00:37.744Z,16.80
2023-01-02T11:03:16.556Z,16.80
2023-01-02T11:05:50.587Z,16.60
2023-01-02T11:08:21.995Z,16.40
2023-01-02T11:10:51.672Z,16.40
2023-01-02T11:13:22.607Z,16.50
2023-01-02T11:15:58.274Z,16.40
2023-01-02T11:18:30.064Z,16.30
2023-01-02T11:21:04.858Z,16.30
2023-01-02T11:23:38.660Z,16.20
2023-01-02T11:26:21.129Z,16.20
2023-01-02T11:28:53.629Z,16.20
2023-01-02T11:31:24.003Z,16.20
2023-01-02T11:33:51.958Z,16.30
2023-01-02T11:36:21.157Z,16.20
2023-01-02T11:38:52.183Z,16.10
2023-01-02T11:41:49.010Z,15.90
2023-01-02T11:44:23.189Z,15.90
2023-01-02T11:46:53.961Z,15.90
2023-01-02T11:49:27.484Z,15.80
2023-01-02T11:52:02.495Z,15.80
2023-01-02T11:54:41.590Z,15.80
2023-01-02T11:57:19.069Z,15.80
2023-01-02T11:59:51.731Z,15.90
2023-01-02T12:02:30.906Z,16.00
2023-01-02T12:04:58.881Z,16.00
2023-01-02T12:07:44.502Z,15.90
2023-01-02T12:10:30.559Z,16.00
2023-01-02T12:13:19.887Z,16.00
2023-01-02T12:16:20.730Z,15.90
2023-01-02T12:19:26.944Z,15.80
2023-01-02T12:22:09.900Z,15.70
2023-01-02T12:25:36.530Z,15.70
2023-01-02T12:28:28.051Z,15.60
2023-01-02T12:31:16.057Z,15.60
2023-01-02T12:33:56.051Z,15.60
2023-01-02T12:36:52.475Z,15.50
2023-01-02T12:39:51.343Z,15.40
2023-01-02T12:42:46.651Z,15.30
2023-01-02T12:45:27.608Z,15.20
2023-01-02T12:48:31.879Z,15.20
2023-01-02T12:51:13.964Z,14.20
2023-01-02T12:54:19.979Z,15.00
2023-01-02T12:57:03.104Z,15.10
2023-01-02T13:00:03.842Z,15.00
2023-01-02T13:03:05.412Z,14.80
2023-01-02T13:05:41.144Z,14.80
2023-01-02T13:08:20.537Z,14.70
2023-01-02T13:10:50.072Z,14.70
2023-01-02T13:13:20.090Z,14.80
2023-01-02T13:15:59.344Z,14.70
2023-01-02T13:18:59.769Z,14.70
2023-01-02T13:21:41.963Z,14.70
2023-01-02T13:24:16.006Z,14.60
2023-01-02T13:26:44.431Z,14.50
2023-01-02T13:29:40.102Z,14.40
2023-01-02T13:32:12.950Z,14.30
2023-01-02T13:34:52.366Z,14.30
2023-01-02T13:37:25.643Z,14.20
2023-01-02T13:39:57.511Z,14.20
2023-01-02T13:42:48.423Z,14.10
2023-01-02T13:45:20.835Z,13.90
2023-01-02T13:47:56.111Z,13.80
2023-01-02T13:50:30.162Z,13.70
2023-01-02T13:53:06.825Z,13.60
2023-01-02T13:55:37.259Z,13.50
2023-01-02T13:58:37.313Z,13.40
2023-01-02T14:02:04.585Z,13.40
2023-01-02T14:04:38.769Z,13.30
2023-01-02T14:07:49.328Z,13.30
2023-01-02T14:10:34.576Z,13.20
2023-01-02T14:13:13.075Z,13.10
2023-01-02T14:16:17.994Z,13.10
2023-01-02T14:18:46.965Z,13.00
2023-01-02T14:21:20.436Z,13.10
2023-01-02T14:24:17.614Z,13.00
2023-01-02T14:26:42.551Z,12.90
2023-01-02T14:29:17.081Z,13.00
2023-01-02T14:31:45.296Z,12.90
2023-01-02T14:34:24.046Z,12.80
2023-01-02T14:36:57.463Z,12.80
2023-01-02T14:39:30.386Z,12.80
2023-01-02T14:42:39.446Z,12.80
2023-01-02T14:45:16.224Z,12.80
2023-01-02T14:47:51.793Z,12.80
2023-01-02T14:50:25.920Z,12.70
2023-01-02T14:53:06.492Z,12.60
2023-01-02T14:55:42.207Z,12.60
2023-01-02T14:58:23.192Z,12.50
2023-01-02T15:00:52.029Z,12.40
2023-01-02T15:03:32.505Z,12.40
2023-01-02T15:06:08.915Z,12.30
2023-01-02T15:08:46.582Z,12.30
2023-01-02T15:11:38.190Z,12.30
2023-01-02T15:14:10.083Z,12.20
2023-01-02T15:16:48.584Z,12.20
2023-01-02T15:19:26.344Z,12.20
2023-01-02T15:21:55.533Z,12.10
2023-01-02T15:24:30.223Z,12.10
2023-01-02T15:27:14.108Z,12.20
2023-01-02T15:29:48.957Z,12.20
2023-01-02T15:32:21.838Z,12.20
2023-01-02T15:34:50.804Z,12.20
2023-01-02T15:37:22.103Z,12.20
2023-01-02T15:39:54.078Z,12.10
2023-01-02T15:42:43.837Z,12.00
2023-01-02T15:45:16.093Z,12.00
2023-01-02T15:47:50.259Z,12.00
2023-01-02T15:50:22.834Z,11.90
2023-01-02T15:52:58.420Z,11.90
2023-01-02T15:55:36.191Z,11.80
2023-01-02T15:58:24.708Z,11.80
2023-01-02T16:01:13.349Z,11.80
2023-01-02T16:04:02.600Z,11.80
2023-01-02T16:06:35.740Z,11.70
2023-01-02T16:09:07.575Z,11.70
2023-01-02T16:11:48.010Z,11.70
2023-01-02T16:14:22.092Z,11.70
2023-01-02T16:16:56.992Z,11.60
2023-01-02T16:19:34.251Z,11.50
2023-01-02T16:22:17.396Z,11.50
2023-01-02T16:24:53.018Z,11.50
2023-01-02T16:27:30.232Z,11.50
2023-01-02T16:29:58.838Z,11.50
2023-01-02T16:32:30.778Z,11.50
2023-01-02T16:35:21.272Z,11.50
2023-01-02T16:37:58.207Z,11.40
2023-01-02T16:41:01.492Z,11.40
2023-01-02T16:43:41.315Z,11.40
2023-01-02T16:46:16.998Z,11.30
2023-01-02T16:48:45.614Z,11.30
2023-01-02T16:51:15.553Z,11.40
2023-01-02T16:53:45.805Z,11.30
2023-01-02T16:56:15.704Z,11.30
2023-01-02T16:58:44.925Z,11.30
2023-01-02T17:01:16.082Z,11.30
2023-01-02T17:03:45.311Z,11.30
2023-01-02T17:06:18.191Z,11.30
2023-01-02T17:08:49.063Z,11.30
2023-01-02T17:11:20.530Z,11.20
2023-01-02T17:13:50.908Z,11.20
2023-01-02T17:16:20.180Z,11.20
2023-01-02T17:18:48.080Z,11.20
2023-01-02T17:21:16.122Z,11.20
2023-01-02T17:23:44.005Z,11.20
2023-01-02T17:26:11.982Z,11.20
2023-01-02T17:28:39.866Z,11.20
2023-01-02T17:31:09.188Z,11.20
2023-01-02T17:33:37.073Z,11.30
2023-01-02T17:36:07.481Z,11.30
2023-01-02T17:38:35.397Z,11.20
2023-01-02T17:41:03.364Z,11.30
2023-01-02T17:43:33.607Z,11.30
2023-01-02T17:46:30.337Z,11.30
2023-01-02T17:48:55.629Z,11.30
2023-01-02T17:51:23.762Z,11.30
2023-01-02T17:53:53.438Z,11.20
2023-01-02T17:56:22.989Z,11.20
2023-01-02T17:58:51.701Z,11.30
2023-01-02T18:01:21.766Z,11.30
2023-01-02T18:03:50.076Z,11.20
2023-01-02T18:06:20.525Z,11.10
2023-01-02T18:08:49.101Z,11.10
2023-01-02T18:11:18.391Z,11.20
2023-01-02T18:13:50.572Z,11.20
2023-01-02T18:16:22.019Z,11.20
2023-01-02T18:18:53.180Z,11.20
2023-01-02T18:21:27.061Z,11.20
2023-01-02T18:24:08.750Z,11.20
2023-01-02T18:26:36.688Z,11.20
2023-01-02T18:29:12.085Z,11.10
2023-01-02T18:31:42.590Z,11.00
2023-01-02T18:34:46.968Z,11.00
2023-01-02T18:37:20.930Z,11.00
2023-01-02T18:39:49.946Z,11.00
2023-01-02T18:42:23.200Z,11.10
2023-01-02T18:44:53.298Z,11.10
2023-01-02T18:47:31.777Z,11.20
2023-01-02T18:50:23.719Z,11.30
2023-01-02T18:52:53.871Z,11.30
2023-01-02T18:55:28.835Z,11.30
2023-01-02T18:58:01.889Z,11.20
2023-01-02T19:00:33.683Z,11.00
2023-01-02T19:03:04.959Z,10.90
2023-01-02T19:05:36.860Z,10.80
2023-01-02T19:08:23.217Z,10.60
2023-01-02T19:10:55.080Z,10.40
2023-01-02T19:13:25.827Z,10.30
2023-01-02T19:16:00.550Z,10.20
2023-01-02T19:18:40.049Z,10.20
2023-01-02T19:21:29.645Z,10.20
2023-01-02T19:24:01.422Z,10.20
2023-01-02T19:26:37.164Z,10.20
2023-01-02T19:29:19.771Z,10.20
2023-01-02T19:31:54.786Z,10.20
2023-01-02T19:34:36.413Z,10.20
2023-01-02T19:37:35.576Z,10.20
2023-01-02T19:40:18.395Z,10.30
2023-01-02T19:42:47.880Z,10.40
2023-01-02T19:45:18.340Z,10.50
2023-01-02T19:47:47.230Z,10.50
2023-01-02T19:50:18.585Z,10.50
2023-01-02T19:52:46.959Z,10.40
2023-01-02T19:55:17.807Z,10.30
2023-01-02T19:57:46.832Z,10.20
2023-01-02T20:00:19.197Z,10.10
2023-01-02T20:02:49.613Z,10.10
2023-01-02T20:05:21.883Z,10.00
2023-01-02T20:07:51.485Z,11.00
2023-01-02T20:10:21.761Z,9.90
2023-01-02T20:12:49.795Z,9.80
2023-01-02T20:15:20.794Z,9.80
2023-01-02T20:17:48.740Z,9.70
2023-01-02T20:20:19.115Z,9.70
2023-01-02T20:22:51.147Z,9.60
2023-01-02T20:25:24.158Z,9.70
2023-01-02T20:27:52.800Z,9.60
2023-01-02T20:30:24.441Z,9.70
2023-01-02T20:32:53.741Z,9.70
2023-01-02T20:35:22.031Z,9.70
2023-01-02T20:37:50.114Z,9.60
2023-01-02T20:40:18.227Z,9.60
2023-01-02T20:42:47.489Z,9.60
2023-01-02T20:45:15.894Z,9.60
2023-01-02T20:47:43.868Z,9.50
2023-01-02T20:50:11.980Z,9.50
2023-01-02T20:52:39.900Z,9.40
2023-01-02T20:55:09.031Z,9.30
2023-01-02T20:57:36.948Z,9.10
2023-01-02T21:00:10.249Z,9.10
2023-01-02T21:02:38.405Z,9.00
2023-01-02T21:05:06.959Z,9.10
2023-01-02T21:07:34.870Z,9.00
2023-01-02T21:10:02.767Z,9.00
2023-01-02T21:12:48.497Z,8.90
2023-01-02T21:15:32.408Z,8.80
2023-01-02T21:18:00.702Z,8.80
2023-01-02T21:20:28.793Z,8.80
2023-01-02T21:22:56.919Z,8.70
2023-01-02T21:25:24.893Z,9.10
2023-01-02T21:27:52.801Z,8.70
2023-01-02T21:30:22.307Z,8.70
2023-01-02T21:32:50.414Z,8.60
2023-01-02T21:35:18.517Z,8.60
2023-01-02T21:37:46.436Z,8.80
2023-01-02T21:40:14.460Z,8.80
2023-01-02T21:42:44.836Z,8.80
2023-01-02T21:45:13.635Z,8.80
2023-01-02T21:47:42.898Z,8.90
2023-01-02T21:50:11.485Z,8.90
2023-01-02T21:52:40.285Z,8.90
2023-01-02T21:55:09.695Z,8.90
2023-01-02T21:58:11.639Z,9.00
2023-01-02T22:00:29.499Z,9.10
2023-01-02T22:02:59.180Z,9.10
2023-01-02T22:05:27.266Z,9.10
2023-01-02T22:07:55.128Z,9.20
2023-01-02T22:10:23.271Z,9.20
2023-01-02T22:12:51.439Z,9.20
2023-01-02T22:15:19.523Z,9.20
2023-01-02T22:17:47.436Z,9.20
2023-01-02T22:20:16.948Z,9.20
2023-01-02T22:22:45.214Z,9.20
2023-01-02T22:25:13.209Z,9.20
2023-01-02T22:27:42.371Z,9.20
2023-01-02T22:30:23.290Z,9.20
2023-01-02T22:32:55.050Z,9.20
2023-01-02T22:35:24.307Z,9.20
2023-01-02T22:37:52.208Z,9.20
2023-01-02T22:40:20.262Z,9.30
2023-01-02T22:43:00.871Z,9.40
2023-01-02T22:45:34.806Z,9.30
2023-01-02T22:48:08.317Z,9.30
2023-01-02T22:50:44.186Z,9.20
2023-01-02T22:53:27.687Z,9.20
2023-01-02T22:55:56.216Z,9.10
2023-01-02T22:58:25.440Z,9.00
2023-01-02T23:01:01.000Z,8.80
2023-01-02T23:03:39.288Z,8.70
2023-01-02T23:06:12.986Z,8.60
2023-01-02T23:08:45.597Z,8.50
2023-01-02T23:11:14.008Z,8.50
2023-01-02T23:13:43.216Z,8.50
2023-01-02T23:16:29.484Z,8.60
2023-01-02T23:19:26.869Z,8.60
2023-01-02T23:21:58.243Z,8.50
2023-01-02T23:24:28.157Z,8.50
2023-01-02T23:26:59.204Z,8.50
2023-01-02T23:29:29.011Z,8.60
2023-01-02T23:31:57.458Z,8.60
2023-01-02T23:34:28.223Z,8.60
2023-01-02T23:37:00.030Z,8.60
2023-01-02T23:39:31.632Z,8.60
2023-01-02T23:42:02.826Z,8.60
2023-01-02T23:44:30.712Z,8.60
2023-01-02T23:47:01.750Z,8.70
2023-01-02T23:49:31.962Z,8.70
2023-01-02T23:52:01.369Z,8.80
2023-01-02T23:54:29.488Z,8.80
2023-01-02T23:56:57.437Z,8.80
2023-01-02T23:59:26.554Z,8.80
